createdAt,value
2022-11-24T00:03:06.281Z,17.3
2022-11-24T00:08:08.508Z,17.2
2022-11-24T00:13:10.662Z,17.2
2022-11-24T00:18:12.810Z,17.2
2022-11-24T00:23:15.065Z,17.1
2022-11-24T00:28:17.219Z,17.1
2022-11-24T00:33:19.394Z,17.1
2022-11-24T00:38:21.648Z,17.1
2022-11-24T00:43:23.800Z,17
2022-11-24T00:48:25.962Z,17
2022-11-24T00:53:28.224Z,17
2022-11-24T00:58:30.377Z,17
2022-11-24T01:03:32.707Z,17
2022-11-24T01:08:34.816Z,16.9
2022-11-24T01:13:36.965Z,16.9
2022-11-24T01:18:39.147Z,16.9
2022-11-24T01:23:41.267Z,16.9
2022-11-24T01:28:46.899Z,16.8
2022-11-24T01:33:45.821Z,16.8
2022-11-24T01:38:48.143Z,16.8
2022-11-24T01:43:50.299Z,16.8
2022-11-24T01:48:52.443Z,16.8
2022-11-24T01:53:54.574Z,16.7
2022-11-24T01:58:56.699Z,16.7
2022-11-24T02:03:58.893Z,16.7
2022-11-24T02:09:01.181Z,16.7
2022-11-24T02:14:03.323Z,16.7
2022-11-24T02:19:05.486Z,16.7
2022-11-24T02:24:07.744Z,16.7
2022-11-24T02:29:09.891Z,16.6
2022-11-24T02:34:12.054Z,16.6
2022-11-24T02:39:14.343Z,16.6
2022-11-24T02:44:16.497Z,16.6
2022-11-24T02:49:18.660Z,16.6
2022-11-24T02:54:20.965Z,16.6
2022-11-24T02:59:23.118Z,16.6
2022-11-24T03:04:25.275Z,16.6
2022-11-24T03:09:27.403Z,16.5
2022-11-24T03:14:29.546Z,16.5
2022-11-24T03:19:31.721Z,16.5
2022-11-24T03:24:34.265Z,16.5
2022-11-24T03:29:36.272Z,16.5
2022-11-24T03:34:38.522Z,16.5
2022-11-24T03:39:40.545Z,16.4
2022-11-24T03:44:42.674Z,16.4
2022-11-24T03:49:45.024Z,16.4
2022-11-24T03:54:47.166Z,16.4
2022-11-24T03:59:49.412Z,16.4
2022-11-24T04:04:51.767Z,16.3
2022-11-24T04:09:53.893Z,16.3
2022-11-24T04:14:56.186Z,16.3
2022-11-24T04:19:59.634Z,16.3
2022-11-24T04:25:01.826Z,16.3
2022-11-24T04:30:03.959Z,16.3
2022-11-24T04:35:06.136Z,16.3
2022-11-24T04:40:08.328Z,16.2
2022-11-24T04:45:10.490Z,16.2
2022-11-24T04:50:12.811Z,16.2
2022-11-24T04:55:15.001Z,16.2
2022-11-24T05:00:17.137Z,16.2
2022-11-24T05:05:19.299Z,16.2
2022-11-24T05:10:21.483Z,16.2
2022-11-24T05:15:23.642Z,16.2
2022-11-24T05:20:25.900Z,16.2
2022-11-24T05:25:27.996Z,16.2
2022-11-24T05:30:30.143Z,16.2
2022-11-24T05:35:32.307Z,16.2
2022-11-24T05:40:34.407Z,16.2
2022-11-24T05:45:36.558Z,16.2
2022-11-24T05:50:38.729Z,16.3
2022-11-24T05:55:40.856Z,16.3
2022-11-24T06:00:43.052Z,16.4
2022-11-24T06:05:45.207Z,16.5
2022-11-24T06:10:47.407Z,16.6
2022-11-24T06:15:49.540Z,16.6
2022-11-24T06:21:09.444Z,16.7
2022-11-24T06:25:54.018Z,16.7
2022-11-24T06:30:56.175Z,16.8
2022-11-24T06:35:58.331Z,16.8
2022-11-24T06:41:00.525Z,16.9
2022-11-24T06:46:02.713Z,16.9
2022-11-24T06:51:04.826Z,16.9
2022-11-24T06:56:10.675Z,17
2022-11-24T07:01:09.341Z,17
2022-11-24T07:06:11.466Z,17
2022-11-24T07:11:13.573Z,17.1
2022-11-24T07:16:15.774Z,17.1
2022-11-24T07:21:17.948Z,17.1
2022-11-24T07:26:20.200Z,17.1
2022-11-24T07:31:22.443Z,17.1
2022-11-24T07:36:24.735Z,17.1
2022-11-24T07:41:26.828Z,17
2022-11-24T07:46:29.224Z,17
2022-11-24T07:51:31.421Z,16.9
2022-11-24T07:56:33.547Z,16.9
2022-11-24T08:01:35.965Z,16.8
2022-11-24T08:06:42.010Z,16.8
2022-11-24T08:11:40.225Z,16.8
2022-11-24T08:16:42.417Z,16.8
2022-11-24T08:21:44.661Z,16.8
2022-11-24T08:26:46.798Z,16.8
2022-11-24T08:31:49.059Z,16.9
2022-11-24T08:36:51.208Z,16.9
2022-11-24T08:41:53.348Z,16.9
2022-11-24T08:46:55.470Z,16.9
2022-11-24T08:51:57.628Z,16.9
2022-11-24T08:56:59.962Z,16.8
2022-11-24T09:02:02.223Z,16.8
2022-11-24T09:07:04.393Z,16.8
2022-11-24T09:12:09.945Z,16.8
2022-11-24T09:17:09.152Z,16.7
2022-11-24T09:22:11.321Z,16.7
2022-11-24T09:27:13.422Z,16.7
2022-11-24T09:32:15.793Z,16.7
2022-11-24T09:37:17.963Z,16.7
2022-11-24T09:42:20.082Z,16.7
2022-11-24T09:47:22.598Z,16.6
2022-11-24T09:52:24.771Z,16.6
2022-11-24T09:57:26.877Z,16.6
2022-11-24T10:02:29.223Z,16.6
2022-11-24T10:07:31.472Z,16.6
2022-11-24T10:12:33.701Z,16.6
2022-11-24T10:17:35.939Z,16.6
2022-11-24T10:22:38.168Z,16.6
2022-11-24T10:27:40.351Z,16.6
2022-11-24T10:32:42.504Z,16.6
2022-11-24T10:37:44.675Z,16.6
2022-11-24T10:42:46.905Z,16.6
2022-11-24T10:47:49.129Z,16.6
2022-11-24T10:52:51.306Z,16.6
2022-11-24T10:57:53.411Z,16.6
2022-11-24T11:02:55.747Z,16.6
2022-11-24T11:08:02.346Z,16.6
2022-11-24T11:13:00.096Z,16.6
2022-11-24T11:18:02.258Z,16.6
2022-11-24T11:23:04.442Z,16.6
2022-11-24T11:28:09.194Z,16.6
2022-11-24T11:38:10.967Z,16.6
2022-11-24T11:43:13.081Z,16.6
2022-11-24T11:48:15.238Z,16.6
2022-11-24T11:53:17.561Z,16.6
2022-11-24T11:58:19.669Z,16.6
2022-11-24T12:03:21.892Z,16.6
2022-11-24T12:08:24.155Z,16.6
2022-11-24T12:13:26.240Z,16.6
2022-11-24T12:18:55.625Z,16.6
2022-11-24T12:23:30.551Z,16.6
2022-11-24T12:28:32.822Z,16.5
2022-11-24T12:33:35.180Z,16.5
2022-11-24T12:38:37.356Z,16.5
2022-11-24T12:43:39.459Z,16.5
2022-11-24T12:48:41.598Z,16.5
2022-11-24T12:53:43.802Z,16.5
2022-11-24T12:58:45.938Z,16.5
2022-11-24T13:03:48.355Z,16.5
2022-11-24T13:08:50.423Z,16.5
2022-11-24T13:13:52.554Z,16.5
2022-11-24T13:18:54.733Z,16.5
2022-11-24T13:23:57.043Z,16.6
2022-11-24T13:29:09.164Z,16.6
2022-11-24T13:34:01.521Z,16.6
2022-11-24T13:39:03.793Z,16.6
2022-11-24T13:44:06.023Z,16.6
2022-11-24T13:49:08.267Z,16.6
2022-11-24T13:54:10.459Z,16.6
2022-11-24T13:59:12.569Z,16.6
2022-11-24T14:04:30.366Z,16.5
2022-11-24T14:09:17.138Z,16.5
2022-11-24T14:14:20.663Z,16.5
2022-11-24T14:19:21.735Z,16.5
2022-11-24T14:24:23.920Z,16.5
2022-11-24T14:29:26.202Z,16.5
2022-11-24T14:34:28.433Z,16.4
2022-11-24T14:39:30.615Z,16.4
2022-11-24T14:44:33.036Z,16.4
2022-11-24T14:49:35.484Z,16.4
2022-11-24T14:54:37.698Z,16.4
2022-11-24T14:59:39.894Z,16.3
2022-11-24T15:09:44.347Z,16.3
2022-11-24T15:14:46.661Z,16.3
2022-11-24T15:19:48.884Z,16.3
2022-11-24T15:24:51.054Z,16.3
2022-11-24T15:29:53.325Z,16.3
2022-11-24T15:34:55.477Z,16.3
2022-11-24T15:39:57.641Z,16.3
2022-11-24T15:44:59.767Z,16.2
2022-11-24T15:50:01.916Z,16.2
2022-11-24T15:55:04.087Z,16.2
2022-11-24T16:00:06.320Z,16.2
2022-11-24T16:05:08.453Z,16.2
2022-11-24T16:10:10.649Z,16.2
2022-11-24T16:15:12.761Z,16.2
2022-11-24T16:20:14.898Z,16.3
2022-11-24T16:25:17.260Z,16.3
2022-11-24T16:30:19.428Z,16.4
2022-11-24T16:35:21.555Z,16.5
2022-11-24T16:40:23.713Z,16.6
2022-11-24T16:45:25.861Z,16.7
2022-11-24T16:50:27.971Z,16.7
2022-11-24T16:55:30.368Z,16.8
2022-11-24T17:00:32.494Z,16.8
2022-11-24T17:05:34.847Z,16.9
2022-11-24T17:10:37.115Z,16.9
2022-11-24T17:15:44.628Z,16.9
2022-11-24T17:20:41.366Z,17
2022-11-24T17:25:43.549Z,17
2022-11-24T17:30:45.648Z,17
2022-11-24T17:35:47.792Z,17
2022-11-24T17:40:49.961Z,17
2022-11-24T17:45:52.152Z,17.1
2022-11-24T17:50:54.264Z,17.1
2022-11-24T17:55:56.561Z,17.1
2022-11-24T18:00:58.866Z,17.1
2022-11-24T18:06:00.951Z,17.2
2022-11-24T18:11:03.255Z,17.2
2022-11-24T18:16:05.583Z,17.2
2022-11-24T18:21:07.741Z,17.2
2022-11-24T18:26:09.906Z,17.2
2022-11-24T18:31:12.176Z,17.2
2022-11-24T18:36:14.336Z,17.2
2022-11-24T18:41:16.496Z,17.3
2022-11-24T18:46:18.627Z,17.3
2022-11-24T18:51:20.840Z,17.3
2022-11-24T18:56:23.028Z,17.3
2022-11-24T19:01:25.306Z,17.4
2022-11-24T19:06:27.435Z,17.4
2022-11-24T19:11:29.635Z,17.4
2022-11-24T19:16:31.823Z,17.4
2022-11-24T19:21:33.987Z,17.4
2022-11-24T19:26:36.170Z,17.4
2022-11-24T19:31:38.499Z,17.4
2022-11-24T19:36:40.628Z,17.5
2022-11-24T19:41:42.818Z,17.5
2022-11-24T19:46:45.191Z,17.5
2022-11-24T19:51:47.408Z,17.5
2022-11-24T19:56:49.634Z,17.5
2022-11-24T20:01:51.904Z,17.5
2022-11-24T20:06:53.902Z,17.5
2022-11-24T20:11:56.331Z,17.5
2022-11-24T20:16:58.514Z,17.5
2022-11-24T20:22:00.626Z,17.5
2022-11-24T20:27:02.793Z,17.5
2022-11-24T20:32:05.067Z,17.5
2022-11-24T20:37:07.171Z,17.4
2022-11-24T20:42:09.429Z,17.4
2022-11-24T20:47:11.813Z,17.4
2022-11-24T20:52:13.966Z,17.3
2022-11-24T20:57:16.341Z,17.3
2022-11-24T21:02:18.697Z,17.3
2022-11-24T21:07:20.873Z,17.2
2022-11-24T21:12:23.050Z,17.2
2022-11-24T21:17:25.374Z,17.2
2022-11-24T21:22:27.522Z,17.2
2022-11-24T21:27:29.917Z,17.2
2022-11-24T21:32:32.084Z,17.1
2022-11-24T21:37:34.218Z,17.1
2022-11-24T21:42:36.387Z,17.1
2022-11-24T21:47:38.511Z,17.1
2022-11-24T21:52:40.713Z,17.1
2022-11-24T21:57:42.995Z,17.1
2022-11-24T22:02:45.236Z,17.1
2022-11-24T22:07:47.341Z,17.1
2022-11-24T22:12:49.501Z,17.1
2022-11-24T22:17:51.725Z,17
2022-11-24T22:22:53.940Z,17
2022-11-24T22:27:56.217Z,17
2022-11-24T22:32:58.333Z,17
2022-11-24T22:38:00.466Z,17
2022-11-24T22:43:02.687Z,16.9
2022-11-24T22:48:04.877Z,16.9
2022-11-24T22:53:07.033Z,16.9
2022-11-24T22:58:09.201Z,16.9
2022-11-24T23:03:11.578Z,16.9
2022-11-24T23:08:13.653Z,16.8
2022-11-24T23:13:16.116Z,16.8
2022-11-24T23:18:18.318Z,16.8
2022-11-24T23:23:20.483Z,16.8
2022-11-24T23:28:22.741Z,16.8
2022-11-24T23:33:24.895Z,16.7
2022-11-24T23:38:27.037Z,16.7
2022-11-24T23:43:29.468Z,16.7
2022-11-24T23:48:31.778Z,16.6
2022-11-24T23:53:33.930Z,16.6
2022-11-24T23:58:36.209Z,16.6
